Terminal Aerodrome Forecast
Issued by NWS Wilmington, OH

Current Version | Previous Version | Text Only | Print | Product List | Glossary Off
Versions: 1 2 3 4 5 6 7 8 9 10 11 12 13 14 15 16 17 18

000
FTUS41 KILN 271700
TAFDAY
TAF
KDAY 271732Z 2718/2818 20016G24KT P6SM SCT035 BKN250
     FM272300 20012KT P6SM BKN250
     FM280900 21014KT P6SM SCT040 BKN200
     FM281500 22012G22KT P6SM -SHRA OVC018=

USA.gov is the U.S. government's official web portal to all federal, state and local government web resources and services.